sensor_id;sensor_type;location;lat;lon;timestamp;P1;durP1;ratioP1;P2;durP2;ratioP2
63276;SDS011;49403;51.046;13.780;2022-11-10T04:57:41;5.63;;;3.80;;
63276;SDS011;49403;51.046;13.780;2022-11-10T04:58:12;7.50;;;4.30;;
63276;SDS011;49403;51.046;13.780;2022-11-10T04:58:44;7.95;;;4.40;;
63276;SDS011;49403;51.046;13.780;2022-11-10T04:59:15;8.75;;;4.15;;
63276;SDS011;49403;51.046;13.780;2022-11-10T04:59:46;5.90;;;3.22;;
63276;SDS011;49403;51.046;13.780;2022-11-10T05:00:17;8.82;;;3.97;;
63276;SDS011;49403;51.046;13.780;2022-11-10T05:00:48;6.88;;;4.25;;
63276;SDS011;49403;51.046;13.780;2022-11-10T05:01:19;7.72;;;4.65;;
63276;SDS011;49403;51.046;13.780;2022-11-10T05:01:51;8.40;;;4.50;;
63276;SDS011;49403;51.046;13.780;2022-11-10T05:02:22;7.72;;;4.53;;
63276;SDS011;49403;51.046;13.780;2022-11-10T05:02:53;6.93;;;4.75;;
63276;SDS011;49403;51.046;13.780;2022-11-10T05:03:23;7.85;;;4.72;;
63276;SDS011;49403;51.046;13.780;2022-11-10T05:03:56;9.10;;;4.80;;
63276;SDS011;49403;51.046;13.780;2022-11-10T05:04:27;7.05;;;3.85;;
63276;SDS011;49403;51.046;13.780;2022-11-10T05:04:58;5.22;;;3.97;;
63276;SDS011;49403;51.046;13.780;2022-11-10T05:05:29;7.47;;;4.07;;
63276;SDS011;49403;51.046;13.780;2022-11-10T05:06:00;10.40;;;5.15;;
63276;SDS011;49403;51.046;13.780;2022-11-10T05:06:31;10.18;;;4.78;;
63276;SDS011;49403;51.046;13.780;2022-11-10T05:07:02;7.15;;;3.85;;
63276;SDS011;49403;51.046;13.780;2022-11-10T05:07:33;8.18;;;3.50;;
63276;SDS011;49403;51.046;13.780;2022-11-10T05:08:03;7.90;;;4.13;;
63276;SDS011;49403;51.046;13.780;2022-11-10T05:08:35;6.60;;;3.00;;
63276;SDS011;49403;51.046;13.780;2022-11-10T05:09:06;4.95;;;2.88;;
63276;SDS011;49403;51.046;13.780;2022-11-10T05:09:37;5.60;;;3.50;;
63276;SDS011;49403;51.046;13.780;2022-11-10T05:10:08;6.22;;;3.75;;
63276;SDS011;49403;51.046;13.780;2022-11-10T05:10:39;5.35;;;3.90;;
63276;SDS011;49403;51.046;13.780;2022-11-10T05:11:10;7.07;;;3.50;;
63276;SDS011;49403;51.046;13.780;2022-11-10T05:11:41;6.00;;;3.63;;
63276;SDS011;49403;51.046;13.780;2022-11-10T05:12:12;4.60;;;3.10;;
63276;SDS011;49403;51.046;13.780;2022-11-10T05:12:43;5.85;;;3.30;;
63276;SDS011;49403;51.046;13.780;2022-11-10T05:13:13;7.47;;;3.58;;
63276;SDS011;49403;51.046;13.780;2022-11-10T05:13:44;6.30;;;3.75;;
63276;SDS011;49403;51.046;13.780;2022-11-10T05:14:15;9.63;;;3.83;;
63276;SDS011;49403;51.046;13.780;2022-11-10T05:14:46;10.05;;;4.35;;
63276;SDS011;49403;51.046;13.780;2022-11-10T05:15:17;5.95;;;3.65;;
63276;SDS011;49403;51.046;13.780;2022-11-10T05:15:47;7.05;;;4.03;;
63276;SDS011;49403;51.046;13.780;2022-11-10T05:16:18;8.80;;;3.60;;
63276;SDS011;49403;51.046;13.780;2022-11-10T05:16:49;7.10;;;3.28;;
63276;SDS011;49403;51.046;13.780;2022-11-10T05:17:20;5.00;;;3.05;;
63276;SDS011;49403;51.046;13.780;2022-11-10T05:17:52;7.25;;;3.70;;
63276;SDS011;49403;51.046;13.780;2022-11-10T05:18:23;7.93;;;3.60;;
63276;SDS011;49403;51.046;13.780;2022-11-10T05:18:54;6.80;;;3.58;;
63276;SDS011;49403;51.046;13.780;2022-11-10T05:19:27;5.75;;;3.60;;
63276;SDS011;49403;51.046;13.780;2022-11-10T05:19:57;8.35;;;3.92;;
63276;SDS011;49403;51.046;13.780;2022-11-10T05:20:28;7.30;;;3.80;;
63276;SDS011;49403;51.046;13.780;2022-11-10T05:20:59;6.28;;;3.80;;
63276;SDS011;49403;51.046;13.780;2022-11-10T05:21:30;4.40;;;3.30;;
63276;SDS011;49403;51.046;13.780;2022-11-10T05:22:00;6.05;;;3.20;;
63276;SDS011;49403;51.046;13.780;2022-11-10T05:22:31;5.85;;;3.45;;
63276;SDS011;49403;51.046;13.780;2022-11-10T05:23:02;5.68;;;3.75;;
63276;SDS011;49403;51.046;13.780;2022-11-10T05:23:51;6.18;;;3.78;;
63276;SDS011;49403;51.046;13.780;2022-11-10T05:24:22;7.82;;;3.95;;
63276;SDS011;49403;51.046;13.780;2022-11-10T05:24:53;7.05;;;3.90;;
63276;SDS011;49403;51.046;13.780;2022-11-10T05:25:24;6.47;;;3.42;;
63276;SDS011;49403;51.046;13.780;2022-11-10T05:25:54;6.50;;;3.90;;
63276;SDS011;49403;51.046;13.780;2022-11-10T05:26:25;4.03;;;3.28;;
63276;SDS011;49403;51.046;13.780;2022-11-10T05:26:56;6.93;;;3.22;;
63276;SDS011;49403;51.046;13.780;2022-11-10T05:27:26;7.35;;;3.97;;
63276;SDS011;49403;51.046;13.780;2022-11-10T05:27:58;7.85;;;3.60;;
63276;SDS011;49403;51.046;13.780;2022-11-10T05:28:29;6.30;;;3.80;;
63276;SDS011;49403;51.046;13.780;2022-11-10T05:29:00;6.38;;;3.78;;
63276;SDS011;49403;51.046;13.780;2022-11-10T05:29:31;6.60;;;3.65;;
63276;SDS011;49403;51.046;13.780;2022-11-10T05:30:02;8.00;;;3.80;;
63276;SDS011;49403;51.046;13.780;2022-11-10T05:30:33;8.18;;;4.00;;
63276;SDS011;49403;51.046;13.780;2022-11-10T05:31:04;7.63;;;4.10;;
63276;SDS011;49403;51.046;13.780;2022-11-10T05:31:35;8.65;;;3.40;;
63276;SDS011;49403;51.046;13.780;2022-11-10T05:32:06;8.13;;;3.20;;
63276;SDS011;49403;51.046;13.780;2022-11-10T05:32:37;9.15;;;3.72;;
63276;SDS011;49403;51.046;13.780;2022-11-10T05:33:08;7.63;;;3.58;;
63276;SDS011;49403;51.046;13.780;2022-11-10T05:33:38;6.90;;;4.10;;
63276;SDS011;49403;51.046;13.780;2022-11-10T05:34:09;9.48;;;3.80;;
63276;SDS011;49403;51.046;13.780;2022-11-10T05:34:40;6.35;;;3.40;;
63276;SDS011;49403;51.046;13.780;2022-11-10T05:35:11;5.25;;;3.22;;
63276;SDS011;49403;51.046;13.780;2022-11-10T05:35:41;5.25;;;3.50;;
63276;SDS011;49403;51.046;13.780;2022-11-10T05:36:13;6.30;;;3.50;;
63276;SDS011;49403;51.046;13.780;2022-11-10T05:36:43;7.95;;;4.00;;
63276;SDS011;49403;51.046;13.780;2022-11-10T05:37:14;10.85;;;3.60;;
63276;SDS011;49403;51.046;13.780;2022-11-10T05:37:45;8.93;;;3.30;;
63276;SDS011;49403;51.046;13.780;2022-11-10T05:38:16;4.38;;;2.92;;
63276;SDS011;49403;51.046;13.780;2022-11-10T05:38:46;7.93;;;3.70;;
63276;SDS011;49403;51.046;13.780;2022-11-10T05:39:17;6.68;;;3.03;;
63276;SDS011;49403;51.046;13.780;2022-11-10T05:39:48;8.93;;;3.00;;
63276;SDS011;49403;51.046;13.780;2022-11-10T05:40:19;7.20;;;3.10;;
63276;SDS011;49403;51.046;13.780;2022-11-10T05:40:49;5.05;;;2.85;;
63276;SDS011;49403;51.046;13.780;2022-11-10T05:41:20;5.32;;;2.78;;
63276;SDS011;49403;51.046;13.780;2022-11-10T05:41:51;5.53;;;3.00;;
63276;SDS011;49403;51.046;13.780;2022-11-10T05:42:22;7.00;;;3.10;;
63276;SDS011;49403;51.046;13.780;2022-11-10T05:42:53;5.75;;;2.67;;
63276;SDS011;49403;51.046;13.780;2022-11-10T05:43:23;4.90;;;2.72;;
63276;SDS011;49403;51.046;13.780;2022-11-10T05:43:54;4.50;;;2.55;;
63276;SDS011;49403;51.046;13.780;2022-11-10T05:44:25;3.55;;;2.50;;
63276;SDS011;49403;51.046;13.780;2022-11-10T05:44:56;8.30;;;2.83;;
63276;SDS011;49403;51.046;13.780;2022-11-10T05:45:27;4.65;;;2.30;;
63276;SDS011;49403;51.046;13.780;2022-11-10T05:45:58;7.70;;;2.70;;
63276;SDS011;49403;51.046;13.780;2022-11-10T05:46:29;7.35;;;2.47;;
63276;SDS011;49403;51.046;13.780;2022-11-10T05:47:00;7.68;;;2.50;;
63276;SDS011;49403;51.046;13.780;2022-11-10T05:47:34;5.93;;;2.70;;
63276;SDS011;49403;51.046;13.780;2022-11-10T05:48:05;7.75;;;2.65;;
63276;SDS011;49403;51.046;13.780;2022-11-10T05:48:36;7.28;;;2.80;;
63276;SDS011;49403;51.046;13.780;2022-11-10T05:49:07;5.88;;;2.60;;
63276;SDS011;49403;51.046;13.780;2022-11-10T05:49:38;3.88;;;2.33;;
63276;SDS011;49403;51.046;13.780;2022-11-10T05:50:09;4.47;;;2.58;;
63276;SDS011;49403;51.046;13.780;2022-11-10T05:50:40;7.13;;;2.67;;
63276;SDS011;49403;51.046;13.780;2022-11-10T05:51:12;6.60;;;2.83;;
63276;SDS011;49403;51.046;13.780;2022-11-10T05:51:43;4.82;;;2.92;;
63276;SDS011;49403;51.046;13.780;2022-11-10T05:52:14;6.85;;;2.50;;
63276;SDS011;49403;51.046;13.780;2022-11-10T05:52:46;3.92;;;2.38;;
63276;SDS011;49403;51.046;13.780;2022-11-10T05:53:18;6.05;;;2.22;;
63276;SDS011;49403;51.046;13.780;2022-11-10T05:53:49;5.57;;;2.55;;
63276;SDS011;49403;51.046;13.780;2022-11-10T05:54:20;5.75;;;2.63;;
63276;SDS011;49403;51.046;13.780;2022-11-10T05:54:50;4.78;;;2.70;;
63276;SDS011;49403;51.046;13.780;2022-11-10T05:55:22;7.20;;;2.88;;
63276;SDS011;49403;51.046;13.780;2022-11-10T05:55:54;7.78;;;2.72;;
63276;SDS011;49403;51.046;13.780;2022-11-10T05:56:25;6.95;;;2.95;;
63276;SDS011;49403;51.046;13.780;2022-11-10T05:56:56;9.30;;;2.95;;
63276;SDS011;49403;51.046;13.780;2022-11-10T05:57:27;4.75;;;2.80;;
63276;SDS011;49403;51.046;13.780;2022-11-10T05:57:57;9.00;;;4.43;;
63276;SDS011;49403;51.046;13.780;2022-11-10T05:58:28;8.13;;;3.42;;
63276;SDS011;49403;51.046;13.780;2022-11-10T05:58:59;6.25;;;3.25;;
63276;SDS011;49403;51.046;13.780;2022-11-10T05:59:30;7.75;;;2.90;;
63276;SDS011;49403;51.046;13.780;2022-11-10T06:00:02;9.77;;;2.70;;
63276;SDS011;49403;51.046;13.780;2022-11-10T06:00:36;7.63;;;2.85;;
63276;SDS011;49403;51.046;13.780;2022-11-10T06:01:07;8.25;;;2.38;;
63276;SDS011;49403;51.046;13.780;2022-11-10T06:01:37;5.82;;;2.80;;
63276;SDS011;49403;51.046;13.780;2022-11-10T06:02:08;4.32;;;2.60;;
63276;SDS011;49403;51.046;13.780;2022-11-10T06:02:39;5.32;;;2.50;;
63276;SDS011;49403;51.046;13.780;2022-11-10T06:03:13;4.95;;;2.70;;
63276;SDS011;49403;51.046;13.780;2022-11-10T06:03:46;7.78;;;2.80;;
63276;SDS011;49403;51.046;13.780;2022-11-10T06:04:17;5.97;;;2.67;;
63276;SDS011;49403;51.046;13.780;2022-11-10T06:04:47;8.68;;;4.13;;
63276;SDS011;49403;51.046;13.780;2022-11-10T06:05:18;12.20;;;5.53;;
63276;SDS011;49403;51.046;13.780;2022-11-10T06:05:49;7.00;;;2.80;;
63276;SDS011;49403;51.046;13.780;2022-11-10T06:06:20;6.38;;;2.85;;
63276;SDS011;49403;51.046;13.780;2022-11-10T06:06:52;6.95;;;2.70;;
63276;SDS011;49403;51.046;13.780;2022-11-10T06:07:22;5.72;;;2.70;;
63276;SDS011;49403;51.046;13.780;2022-11-10T06:07:53;4.32;;;2.80;;
63276;SDS011;49403;51.046;13.780;2022-11-10T06:08:24;8.68;;;3.50;;
63276;SDS011;49403;51.046;13.780;2022-11-10T06:08:55;14.45;;;4.68;;
63276;SDS011;49403;51.046;13.780;2022-11-10T06:09:28;8.45;;;3.58;;
63276;SDS011;49403;51.046;13.780;2022-11-10T06:09:59;5.10;;;3.00;;
63276;SDS011;49403;51.046;13.780;2022-11-10T06:10:30;4.00;;;2.70;;
63276;SDS011;49403;51.046;13.780;2022-11-10T06:11:02;6.63;;;3.10;;
63276;SDS011;49403;51.046;13.780;2022-11-10T06:11:33;4.70;;;2.88;;
63276;SDS011;49403;51.046;13.780;2022-11-10T06:12:04;3.40;;;2.58;;
63276;SDS011;49403;51.046;13.780;2022-11-10T06:12:35;9.68;;;2.83;;
63276;SDS011;49403;51.046;13.780;2022-11-10T06:13:06;9.20;;;2.90;;
63276;SDS011;49403;51.046;13.780;2022-11-10T06:13:36;5.60;;;2.90;;
63276;SDS011;49403;51.046;13.780;2022-11-10T06:14:07;5.35;;;2.60;;
63276;SDS011;49403;51.046;13.780;2022-11-10T06:14:38;5.93;;;2.90;;
63276;SDS011;49403;51.046;13.780;2022-11-10T06:15:09;6.40;;;2.70;;
63276;SDS011;49403;51.046;13.780;2022-11-10T06:15:40;5.97;;;3.10;;
63276;SDS011;49403;51.046;13.780;2022-11-10T06:16:11;6.45;;;3.17;;
63276;SDS011;49403;51.046;13.780;2022-11-10T06:16:42;6.38;;;3.00;;
63276;SDS011;49403;51.046;13.780;2022-11-10T06:17:13;5.28;;;2.83;;
63276;SDS011;49403;51.046;13.780;2022-11-10T06:17:44;6.20;;;2.90;;
63276;SDS011;49403;51.046;13.780;2022-11-10T06:18:15;9.85;;;3.10;;
63276;SDS011;49403;51.046;13.780;2022-11-10T06:18:45;6.07;;;2.60;;
63276;SDS011;49403;51.046;13.780;2022-11-10T06:19:16;8.68;;;2.90;;
63276;SDS011;49403;51.046;13.780;2022-11-10T06:19:47;5.90;;;3.10;;
63276;SDS011;49403;51.046;13.780;2022-11-10T06:20:18;7.20;;;3.10;;
63276;SDS011;49403;51.046;13.780;2022-11-10T06:20:49;8.15;;;3.00;;
63276;SDS011;49403;51.046;13.780;2022-11-10T06:21:20;8.32;;;3.20;;
63276;SDS011;49403;51.046;13.780;2022-11-10T06:21:51;7.38;;;3.10;;
63276;SDS011;49403;51.046;13.780;2022-11-10T06:22:22;6.60;;;3.28;;
63276;SDS011;49403;51.046;13.780;2022-11-10T06:22:56;8.13;;;3.10;;
63276;SDS011;49403;51.046;13.780;2022-11-10T06:23:31;6.40;;;3.28;;
63276;SDS011;49403;51.046;13.780;2022-11-10T06:24:02;6.68;;;2.90;;
63276;SDS011;49403;51.046;13.780;2022-11-10T06:24:33;10.63;;;3.25;;
63276;SDS011;49403;51.046;13.780;2022-11-10T06:25:03;7.72;;;3.00;;
63276;SDS011;49403;51.046;13.780;2022-11-10T06:25:35;9.65;;;3.35;;
63276;SDS011;49403;51.046;13.780;2022-11-10T06:26:08;6.68;;;3.30;;
63276;SDS011;49403;51.046;13.780;2022-11-10T06:26:39;7.28;;;3.10;;
63276;SDS011;49403;51.046;13.780;2022-11-10T06:27:09;10.55;;;3.38;;
63276;SDS011;49403;51.046;13.780;2022-11-10T06:27:43;6.97;;;3.10;;
63276;SDS011;49403;51.046;13.780;2022-11-10T06:28:13;7.03;;;3.63;;
63276;SDS011;49403;51.046;13.780;2022-11-10T06:28:44;10.20;;;3.25;;
63276;SDS011;49403;51.046;13.780;2022-11-10T06:29:15;6.63;;;2.70;;
63276;SDS011;49403;51.046;13.780;2022-11-10T06:29:46;9.23;;;3.33;;
63276;SDS011;49403;51.046;13.780;2022-11-10T06:30:17;7.80;;;2.85;;
63276;SDS011;49403;51.046;13.780;2022-11-10T06:30:47;6.72;;;3.50;;
63276;SDS011;49403;51.046;13.780;2022-11-10T06:31:18;7.35;;;3.38;;
63276;SDS011;49403;51.046;13.780;2022-11-10T06:31:49;5.80;;;3.20;;
63276;SDS011;49403;51.046;13.780;2022-11-10T06:32:20;10.25;;;3.40;;
63276;SDS011;49403;51.046;13.780;2022-11-10T06:32:51;5.57;;;2.78;;
63276;SDS011;49403;51.046;13.780;2022-11-10T06:33:22;10.63;;;3.10;;
63276;SDS011;49403;51.046;13.780;2022-11-10T06:33:52;9.02;;;2.92;;
63276;SDS011;49403;51.046;13.780;2022-11-10T06:34:24;6.50;;;3.00;;
63276;SDS011;49403;51.046;13.780;2022-11-10T06:34:55;7.20;;;3.08;;
63276;SDS011;49403;51.046;13.780;2022-11-10T06:35:26;6.43;;;2.75;;
63276;SDS011;49403;51.046;13.780;2022-11-10T06:35:58;6.13;;;2.90;;
63276;SDS011;49403;51.046;13.780;2022-11-10T06:36:28;5.70;;;3.10;;
63276;SDS011;49403;51.046;13.780;2022-11-10T06:36:59;8.85;;;3.00;;
63276;SDS011;49403;51.046;13.780;2022-11-10T06:37:30;7.65;;;3.15;;
63276;SDS011;49403;51.046;13.780;2022-11-10T06:38:04;10.02;;;2.80;;
63276;SDS011;49403;51.046;13.780;2022-11-10T06:38:38;5.90;;;2.90;;
63276;SDS011;49403;51.046;13.780;2022-11-10T06:39:09;4.65;;;2.80;;
63276;SDS011;49403;51.046;13.780;2022-11-10T06:39:40;6.18;;;2.50;;
63276;SDS011;49403;51.046;13.780;2022-11-10T06:40:11;5.22;;;2.55;;
63276;SDS011;49403;51.046;13.780;2022-11-10T06:40:43;8.82;;;2.83;;
63276;SDS011;49403;51.046;13.780;2022-11-10T06:41:13;4.93;;;2.50;;
63276;SDS011;49403;51.046;13.780;2022-11-10T06:41:44;4.25;;;2.85;;
63276;SDS011;49403;51.046;13.780;2022-11-10T06:42:15;6.80;;;2.60;;
63276;SDS011;49403;51.046;13.780;2022-11-10T06:42:46;5.45;;;2.80;;
63276;SDS011;49403;51.046;13.780;2022-11-10T06:43:16;8.30;;;2.80;;
63276;SDS011;49403;51.046;13.780;2022-11-10T06:43:47;6.78;;;3.10;;
63276;SDS011;49403;51.046;13.780;2022-11-10T06:44:18;5.18;;;2.72;;
63276;SDS011;49403;51.046;13.780;2022-11-10T06:44:49;5.10;;;2.83;;
63276;SDS011;49403;51.046;13.780;2022-11-10T06:45:20;7.95;;;2.55;;
63276;SDS011;49403;51.046;13.780;2022-11-10T06:45:51;5.70;;;2.35;;
63276;SDS011;49403;51.046;13.780;2022-11-10T06:46:21;6.32;;;2.42;;
63276;SDS011;49403;51.046;13.780;2022-11-10T06:46:52;8.15;;;2.80;;
63276;SDS011;49403;51.046;13.780;2022-11-10T06:47:23;4.55;;;2.78;;
63276;SDS011;49403;51.046;13.780;2022-11-10T06:48:35;6.88;;;2.88;;
63276;SDS011;49403;51.046;13.780;2022-11-10T06:49:06;5.15;;;2.67;;
63276;SDS011;49403;51.046;13.780;2022-11-10T06:49:37;6.70;;;3.28;;
63276;SDS011;49403;51.046;13.780;2022-11-10T06:50:07;7.75;;;2.90;;
63276;SDS011;49403;51.046;13.780;2022-11-10T06:50:39;7.15;;;2.83;;
63276;SDS011;49403;51.046;13.780;2022-11-10T06:51:09;4.85;;;2.72;;
63276;SDS011;49403;51.046;13.780;2022-11-10T06:51:40;9.35;;;3.00;;
63276;SDS011;49403;51.046;13.780;2022-11-10T06:52:11;4.55;;;2.50;;
63276;SDS011;49403;51.046;13.780;2022-11-10T06:52:42;7.07;;;2.70;;
63276;SDS011;49403;51.046;13.780;2022-11-10T06:53:12;4.95;;;2.90;;
63276;SDS011;49403;51.046;13.780;2022-11-10T06:53:44;6.60;;;2.70;;
63276;SDS011;49403;51.046;13.780;2022-11-10T06:54:14;8.38;;;3.47;;
63276;SDS011;49403;51.046;13.780;2022-11-10T06:54:45;4.90;;;2.60;;
63276;SDS011;49403;51.046;13.780;2022-11-10T06:55:16;6.68;;;2.53;;
63276;SDS011;49403;51.046;13.780;2022-11-10T06:55:47;6.15;;;2.95;;
63276;SDS011;49403;51.046;13.780;2022-11-10T06:56:17;5.60;;;2.72;;
63276;SDS011;49403;51.046;13.780;2022-11-10T06:56:48;7.20;;;2.70;;
63276;SDS011;49403;51.046;13.780;2022-11-10T06:57:19;7.63;;;2.75;;
63276;SDS011;49403;51.046;13.780;2022-11-10T06:57:50;8.07;;;2.65;;
63276;SDS011;49403;51.046;13.780;2022-11-10T06:58:21;5.18;;;2.70;;
63276;SDS011;49403;51.046;13.780;2022-11-10T06:58:51;7.70;;;2.80;;
63276;SDS011;49403;51.046;13.780;2022-11-10T06:59:22;8.52;;;2.90;;
63276;SDS011;49403;51.046;13.780;2022-11-10T06:59:53;9.18;;;3.60;;
63276;SDS011;49403;51.046;13.780;2022-11-10T07:00:24;4.57;;;2.50;;
63276;SDS011;49403;51.046;13.780;2022-11-10T07:00:58;4.85;;;2.50;;
63276;SDS011;49403;51.046;13.780;2022-11-10T07:01:30;8.48;;;2.70;;
63276;SDS011;49403;51.046;13.780;2022-11-10T07:02:00;5.80;;;2.50;;
63276;SDS011;49403;51.046;13.780;2022-11-10T07:02:31;9.20;;;2.67;;
63276;SDS011;49403;51.046;13.780;2022-11-10T07:03:03;4.63;;;2.45;;
63276;SDS011;49403;51.046;13.780;2022-11-10T07:03:35;7.82;;;2.67;;
63276;SDS011;49403;51.046;13.780;2022-11-10T07:04:06;5.32;;;2.58;;
63276;SDS011;49403;51.046;13.780;2022-11-10T07:04:37;4.20;;;2.53;;
63276;SDS011;49403;51.046;13.780;2022-11-10T07:05:08;5.00;;;2.42;;
63276;SDS011;49403;51.046;13.780;2022-11-10T07:05:39;8.63;;;2.58;;
63276;SDS011;49403;51.046;13.780;2022-11-10T07:06:09;6.55;;;2.63;;
63276;SDS011;49403;51.046;13.780;2022-11-10T07:06:40;3.83;;;2.40;;
63276;SDS011;49403;51.046;13.780;2022-11-10T07:07:11;6.03;;;2.60;;
63276;SDS011;49403;51.046;13.780;2022-11-10T07:07:42;5.03;;;2.42;;
63276;SDS011;49403;51.046;13.780;2022-11-10T07:08:14;7.13;;;2.40;;
63276;SDS011;49403;51.046;13.780;2022-11-10T07:08:45;4.70;;;2.30;;
63276;SDS011;49403;51.046;13.780;2022-11-10T07:09:17;8.00;;;2.40;;
63276;SDS011;49403;51.046;13.780;2022-11-10T07:09:47;6.22;;;2.58;;
63276;SDS011;49403;51.046;13.780;2022-11-10T07:10:18;5.03;;;2.70;;
63276;SDS011;49403;51.046;13.780;2022-11-10T07:10:50;9.30;;;2.85;;
63276;SDS011;49403;51.046;13.780;2022-11-10T07:11:22;5.97;;;2.72;;
63276;SDS011;49403;51.046;13.780;2022-11-10T07:11:53;7.97;;;2.50;;
63276;SDS011;49403;51.046;13.780;2022-11-10T07:12:24;5.47;;;2.55;;
63276;SDS011;49403;51.046;13.780;2022-11-10T07:12:55;7.88;;;2.90;;
63276;SDS011;49403;51.046;13.780;2022-11-10T07:13:27;9.27;;;2.80;;
63276;SDS011;49403;51.046;13.780;2022-11-10T07:13:58;6.65;;;2.95;;
63276;SDS011;49403;51.046;13.780;2022-11-10T07:14:29;7.75;;;2.80;;
63276;SDS011;49403;51.046;13.780;2022-11-10T07:14:59;5.57;;;2.70;;
63276;SDS011;49403;51.046;13.780;2022-11-10T07:15:30;5.78;;;2.70;;
63276;SDS011;49403;51.046;13.780;2022-11-10T07:16:03;5.85;;;2.80;;
63276;SDS011;49403;51.046;13.780;2022-11-10T07:16:35;5.57;;;2.72;;
63276;SDS011;49403;51.046;13.780;2022-11-10T07:17:06;6.20;;;2.75;;
63276;SDS011;49403;51.046;13.780;2022-11-10T07:17:39;5.38;;;2.70;;
63276;SDS011;49403;51.046;13.780;2022-11-10T07:18:10;4.50;;;2.55;;
63276;SDS011;49403;51.046;13.780;2022-11-10T07:18:41;11.50;;;2.70;;
63276;SDS011;49403;51.046;13.780;2022-11-10T07:19:12;6.18;;;2.72;;
63276;SDS011;49403;51.046;13.780;2022-11-10T07:19:42;7.43;;;2.92;;
63276;SDS011;49403;51.046;13.780;2022-11-10T07:20:13;7.25;;;2.95;;
63276;SDS011;49403;51.046;13.780;2022-11-10T07:20:44;6.35;;;3.22;;
63276;SDS011;49403;51.046;13.780;2022-11-10T07:21:15;5.68;;;2.42;;
63276;SDS011;49403;51.046;13.780;2022-11-10T07:21:46;8.07;;;2.80;;
63276;SDS011;49403;51.046;13.780;2022-11-10T07:22:17;8.85;;;2.78;;
63276;SDS011;49403;51.046;13.780;2022-11-10T07:22:48;5.05;;;2.58;;
63276;SDS011;49403;51.046;13.780;2022-11-10T07:23:18;8.00;;;2.75;;
63276;SDS011;49403;51.046;13.780;2022-11-10T07:23:49;6.15;;;2.83;;
63276;SDS011;49403;51.046;13.780;2022-11-10T07:24:20;6.90;;;2.70;;
63276;SDS011;49403;51.046;13.780;2022-11-10T07:24:51;3.47;;;2.60;;
63276;SDS011;49403;51.046;13.780;2022-11-10T07:25:22;6.53;;;2.60;;
63276;SDS011;49403;51.046;13.780;2022-11-10T07:25:52;3.60;;;2.53;;
63276;SDS011;49403;51.046;13.780;2022-11-10T07:26:23;5.72;;;2.80;;
63276;SDS011;49403;51.046;13.780;2022-11-10T07:26:55;5.90;;;2.90;;
63276;SDS011;49403;51.046;13.780;2022-11-10T07:27:26;8.00;;;2.78;;
63276;SDS011;49403;51.046;13.780;2022-11-10T07:27:58;4.25;;;2.20;;
63276;SDS011;49403;51.046;13.780;2022-11-10T07:28:30;5.47;;;2.67;;
63276;SDS011;49403;51.046;13.780;2022-11-10T07:29:01;5.82;;;2.70;;
63276;SDS011;49403;51.046;13.780;2022-11-10T07:29:32;9.20;;;2.88;;
63276;SDS011;49403;51.046;13.780;2022-11-10T07:30:03;7.32;;;2.67;;
63276;SDS011;49403;51.046;13.780;2022-11-10T07:30:35;4.55;;;2.50;;
63276;SDS011;49403;51.046;13.780;2022-11-10T07:31:05;6.18;;;2.42;;
63276;SDS011;49403;51.046;13.780;2022-11-10T07:31:36;10.98;;;3.00;;
63276;SDS011;49403;51.046;13.780;2022-11-10T07:32:07;5.88;;;3.20;;
63276;SDS011;49403;51.046;13.780;2022-11-10T07:32:38;5.93;;;2.50;;
63276;SDS011;49403;51.046;13.780;2022-11-10T07:33:13;5.97;;;2.50;;
63276;SDS011;49403;51.046;13.780;2022-11-10T07:33:44;8.30;;;2.70;;
63276;SDS011;49403;51.046;13.780;2022-11-10T07:34:16;6.10;;;2.47;;
63276;SDS011;49403;51.046;13.780;2022-11-10T07:34:47;4.32;;;2.50;;
63276;SDS011;49403;51.046;13.780;2022-11-10T07:35:18;4.88;;;2.28;;
63276;SDS011;49403;51.046;13.780;2022-11-10T07:35:50;6.47;;;2.67;;
63276;SDS011;49403;51.046;13.780;2022-11-10T07:36:29;3.45;;;2.65;;
63276;SDS011;49403;51.046;13.780;2022-11-10T07:37:00;5.85;;;2.58;;
63276;SDS011;49403;51.046;13.780;2022-11-10T07:37:30;4.25;;;2.60;;
63276;SDS011;49403;51.046;13.780;2022-11-10T07:38:03;4.30;;;2.45;;
63276;SDS011;49403;51.046;13.780;2022-11-10T07:38:36;7.95;;;2.67;;
63276;SDS011;49403;51.046;13.780;2022-11-10T07:39:06;5.90;;;2.53;;
63276;SDS011;49403;51.046;13.780;2022-11-10T07:39:37;5.18;;;2.67;;
63276;SDS011;49403;51.046;13.780;2022-11-10T07:40:08;5.53;;;2.55;;
63276;SDS011;49403;51.046;13.780;2022-11-10T07:40:39;6.53;;;2.58;;
63276;SDS011;49403;51.046;13.780;2022-11-10T07:41:10;6.35;;;2.55;;
63276;SDS011;49403;51.046;13.780;2022-11-10T07:41:41;8.13;;;3.10;;
63276;SDS011;49403;51.046;13.780;2022-11-10T07:42:12;7.88;;;2.45;;
63276;SDS011;49403;51.046;13.780;2022-11-10T07:42:42;7.50;;;2.60;;
63276;SDS011;49403;51.046;13.780;2022-11-10T07:43:13;5.22;;;2.58;;
63276;SDS011;49403;51.046;13.780;2022-11-10T07:43:44;5.20;;;2.63;;
63276;SDS011;49403;51.046;13.780;2022-11-10T07:44:15;5.25;;;2.47;;
63276;SDS011;49403;51.046;13.780;2022-11-10T07:44:45;5.18;;;2.30;;
63276;SDS011;49403;51.046;13.780;2022-11-10T07:45:16;5.80;;;2.50;;
63276;SDS011;49403;51.046;13.780;2022-11-10T07:45:50;6.78;;;2.28;;
63276;SDS011;49403;51.046;13.780;2022-11-10T07:46:21;5.57;;;2.70;;
63276;SDS011;49403;51.046;13.780;2022-11-10T07:46:52;6.28;;;2.20;;
63276;SDS011;49403;51.046;13.780;2022-11-10T07:47:23;6.28;;;2.45;;
63276;SDS011;49403;51.046;13.780;2022-11-10T07:48:00;8.68;;;2.60;;
63276;SDS011;49403;51.046;13.780;2022-11-10T07:48:32;6.40;;;2.80;;
63276;SDS011;49403;51.046;13.780;2022-11-10T07:49:03;6.30;;;2.33;;
63276;SDS011;49403;51.046;13.780;2022-11-10T07:49:34;4.47;;;2.42;;
63276;SDS011;49403;51.046;13.780;2022-11-10T07:50:04;7.10;;;2.25;;
63276;SDS011;49403;51.046;13.780;2022-11-10T07:50:36;13.23;;;2.75;;
63276;SDS011;49403;51.046;13.780;2022-11-10T07:51:07;4.50;;;2.33;;
63276;SDS011;49403;51.046;13.780;2022-11-10T07:51:37;3.30;;;2.60;;
63276;SDS011;49403;51.046;13.780;2022-11-10T07:52:08;6.07;;;2.58;;
63276;SDS011;49403;51.046;13.780;2022-11-10T07:52:39;4.45;;;2.30;;
63276;SDS011;49403;51.046;13.780;2022-11-10T07:53:11;6.78;;;2.50;;
63276;SDS011;49403;51.046;13.780;2022-11-10T07:53:43;5.85;;;2.50;;
63276;SDS011;49403;51.046;13.780;2022-11-10T07:54:14;6.13;;;2.33;;
63276;SDS011;49403;51.046;13.780;2022-11-10T07:54:45;8.82;;;2.63;;
63276;SDS011;49403;51.046;13.780;2022-11-10T07:55:16;4.32;;;2.30;;
63276;SDS011;49403;51.046;13.780;2022-11-10T07:55:47;5.88;;;2.72;;
63276;SDS011;49403;51.046;13.780;2022-11-10T07:56:18;6.57;;;2.70;;
63276;SDS011;49403;51.046;13.780;2022-11-10T07:56:48;6.32;;;2.70;;
63276;SDS011;49403;51.046;13.780;2022-11-10T07:57:19;5.30;;;2.30;;
63276;SDS011;49403;51.046;13.780;2022-11-10T07:57:50;5.50;;;2.63;;
63276;SDS011;49403;51.046;13.780;2022-11-10T07:58:25;6.30;;;2.40;;
63276;SDS011;49403;51.046;13.780;2022-11-10T07:58:56;7.38;;;2.58;;
63276;SDS011;49403;51.046;13.780;2022-11-10T07:59:27;6.97;;;2.72;;
63276;SDS011;49403;51.046;13.780;2022-11-10T07:59:57;5.82;;;2.60;;
63276;SDS011;49403;51.046;13.780;2022-11-10T08:00:28;14.30;;;2.50;;
63276;SDS011;49403;51.046;13.780;2022-11-10T08:00:59;5.80;;;2.47;;
63276;SDS011;49403;51.046;13.780;2022-11-10T08:01:30;6.75;;;2.60;;
63276;SDS011;49403;51.046;13.780;2022-11-10T08:02:02;4.38;;;2.30;;
63276;SDS011;49403;51.046;13.780;2022-11-10T08:02:33;3.38;;;2.10;;
63276;SDS011;49403;51.046;13.780;2022-11-10T08:03:08;5.90;;;2.40;;